sensor_id;sensor_type;location;lat;lon;timestamp;pressure;altitude;pressure_sealevel;temperature;humidity
16331;BME280;8275;48.206;16.340;2023-02-10T00:02:02;101102.53;;;3.78;34.92
16331;BME280;8275;48.206;16.340;2023-02-10T00:04:30;101104.44;;;3.77;35.14
16331;BME280;8275;48.206;16.340;2023-02-10T00:07:00;101106.28;;;3.77;35.35
16331;BME280;8275;48.206;16.340;2023-02-10T00:09:28;101104.56;;;3.76;35.27
16331;BME280;8275;48.206;16.340;2023-02-10T00:11:57;101105.63;;;3.75;35.37
16331;BME280;8275;48.206;16.340;2023-02-10T00:14:28;101103.03;;;3.73;35.55
16331;BME280;8275;48.206;16.340;2023-02-10T00:16:57;101106.13;;;3.70;35.29
16331;BME280;8275;48.206;16.340;2023-02-10T00:19:28;101099.16;;;3.68;35.71
16331;BME280;8275;48.206;16.340;2023-02-10T00:21:57;101102.72;;;3.68;35.72
16331;BME280;8275;48.206;16.340;2023-02-10T00:24:28;101098.13;;;3.69;35.88
16331;BME280;8275;48.206;16.340;2023-02-10T00:26:56;101103.56;;;3.69;35.76
16331;BME280;8275;48.206;16.340;2023-02-10T00:29:25;101103.72;;;3.67;35.84
16331;BME280;8275;48.206;16.340;2023-02-10T00:31:56;101096.47;;;3.68;35.98
16331;BME280;8275;48.206;16.340;2023-02-10T00:34:24;101105.59;;;3.67;36.04
16331;BME280;8275;48.206;16.340;2023-02-10T00:36:54;101096.09;;;3.63;35.57
16331;BME280;8275;48.206;16.340;2023-02-10T00:39:22;101103.38;;;3.62;35.86
16331;BME280;8275;48.206;16.340;2023-02-10T00:41:52;101112.69;;;3.60;35.89
16331;BME280;8275;48.206;16.340;2023-02-10T00:44:20;101113.03;;;3.57;36.09
16331;BME280;8275;48.206;16.340;2023-02-10T00:46:50;101108.63;;;3.55;35.95
16331;BME280;8275;48.206;16.340;2023-02-10T00:49:18;101116.06;;;3.53;36.25
16331;BME280;8275;48.206;16.340;2023-02-10T00:51:47;101107.94;;;3.53;36.12
16331;BME280;8275;48.206;16.340;2023-02-10T00:54:15;101107.28;;;3.51;36.06
16331;BME280;8275;48.206;16.340;2023-02-10T00:56:44;101113.88;;;3.49;36.15
16331;BME280;8275;48.206;16.340;2023-02-10T00:59:14;101102.34;;;3.47;36.27
16331;BME280;8275;48.206;16.340;2023-02-10T01:01:43;101114.38;;;3.44;36.28
16331;BME280;8275;48.206;16.340;2023-02-10T01:04:11;101116.22;;;3.44;36.34
16331;BME280;8275;48.206;16.340;2023-02-10T01:06:40;101116.53;;;3.41;36.50
16331;BME280;8275;48.206;16.340;2023-02-10T01:09:09;101120.28;;;3.40;36.59
16331;BME280;8275;48.206;16.340;2023-02-10T01:11:38;101113.00;;;3.40;36.41
16331;BME280;8275;48.206;16.340;2023-02-10T01:14:06;101116.53;;;3.41;36.62
16331;BME280;8275;48.206;16.340;2023-02-10T01:16:36;101114.84;;;3.40;36.59
16331;BME280;8275;48.206;16.340;2023-02-10T01:19:05;101110.28;;;3.40;36.98
16331;BME280;8275;48.206;16.340;2023-02-10T01:21:34;101099.59;;;3.39;36.87
16331;BME280;8275;48.206;16.340;2023-02-10T01:24:04;101101.50;;;3.38;36.89
16331;BME280;8275;48.206;16.340;2023-02-10T01:26:33;101103.34;;;3.38;36.89
16331;BME280;8275;48.206;16.340;2023-02-10T01:29:02;101105.19;;;3.37;36.93
16331;BME280;8275;48.206;16.340;2023-02-10T01:31:31;101109.75;;;3.37;36.88
16331;BME280;8275;48.206;16.340;2023-02-10T01:34:01;101101.63;;;3.37;36.93
16331;BME280;8275;48.206;16.340;2023-02-10T01:36:29;101099.09;;;3.35;36.99
16331;BME280;8275;48.206;16.340;2023-02-10T01:38:58;101110.78;;;3.36;36.56
16331;BME280;8275;48.206;16.340;2023-02-10T01:41:27;101104.53;;;3.35;37.22
16331;BME280;8275;48.206;16.340;2023-02-10T01:43:59;101109.25;;;3.33;37.38
16331;BME280;8275;48.206;16.340;2023-02-10T01:46:30;101100.28;;;3.33;37.10
16331;BME280;8275;48.206;16.340;2023-02-10T01:49:03;101098.56;;;3.32;37.15
16331;BME280;8275;48.206;16.340;2023-02-10T01:51:38;101098.75;;;3.30;37.43
16331;BME280;8275;48.206;16.340;2023-02-10T01:54:12;101099.91;;;3.28;37.29
16331;BME280;8275;48.206;16.340;2023-02-10T01:56:42;101090.94;;;3.27;37.34
16331;BME280;8275;48.206;16.340;2023-02-10T01:59:12;101087.41;;;3.27;37.30
16331;BME280;8275;48.206;16.340;2023-02-10T02:01:41;101093.66;;;3.27;37.50
16331;BME280;8275;48.206;16.340;2023-02-10T02:04:11;101089.25;;;3.26;37.00
16331;BME280;8275;48.206;16.340;2023-02-10T02:06:40;101085.69;;;3.26;36.91
16331;BME280;8275;48.206;16.340;2023-02-10T02:09:10;101082.13;;;3.25;37.38
16331;BME280;8275;48.206;16.340;2023-02-10T02:11:48;101087.56;;;3.25;37.25
16331;BME280;8275;48.206;16.340;2023-02-10T02:14:29;101085.03;;;3.24;37.14
16331;BME280;8275;48.206;16.340;2023-02-10T02:17:08;101087.72;;;3.24;37.21
16331;BME280;8275;48.206;16.340;2023-02-10T02:20:08;101068.25;;;3.20;37.61
16331;BME280;8275;48.206;16.340;2023-02-10T02:23:39;101066.88;;;3.16;37.18
16331;BME280;8275;48.206;16.340;2023-02-10T02:30:10;101084.78;;;3.09;37.61
16331;BME280;8275;48.206;16.340;2023-02-10T02:32:49;101083.13;;;3.08;37.13
16331;BME280;8275;48.206;16.340;2023-02-10T02:35:26;101077.84;;;3.07;37.38
16331;BME280;8275;48.206;16.340;2023-02-10T02:37:56;101075.13;;;3.07;37.24
16331;BME280;8275;48.206;16.340;2023-02-10T02:40:25;101079.72;;;3.06;37.40
16331;BME280;8275;48.206;16.340;2023-02-10T02:42:53;101078.03;;;3.05;37.23
16331;BME280;8275;48.206;16.340;2023-02-10T02:45:28;101075.50;;;3.04;37.00
16331;BME280;8275;48.206;16.340;2023-02-10T02:48:15;101089.03;;;3.04;37.08
16331;BME280;8275;48.206;16.340;2023-02-10T02:50:57;101091.19;;;3.00;36.92
16331;BME280;8275;48.206;16.340;2023-02-10T02:53:33;101099.13;;;3.02;36.79
16331;BME280;8275;48.206;16.340;2023-02-10T02:56:14;101097.16;;;3.04;36.68
16331;BME280;8275;48.206;16.340;2023-02-10T02:58:53;101096.28;;;3.03;37.36
16331;BME280;8275;48.206;16.340;2023-02-10T03:01:28;101100.53;;;3.06;37.18
16331;BME280;8275;48.206;16.340;2023-02-10T03:03:59;101105.09;;;3.05;37.19
16331;BME280;8275;48.206;16.340;2023-02-10T03:06:30;101115.59;;;3.08;37.04
16331;BME280;8275;48.206;16.340;2023-02-10T03:08:58;101114.56;;;3.09;37.00
16331;BME280;8275;48.206;16.340;2023-02-10T03:11:27;101119.84;;;3.11;37.04
16331;BME280;8275;48.206;16.340;2023-02-10T03:13:55;101118.81;;;3.12;37.20
16331;BME280;8275;48.206;16.340;2023-02-10T03:16:24;101119.50;;;3.14;37.25
16331;BME280;8275;48.206;16.340;2023-02-10T03:18:52;101126.63;;;3.15;37.52
16331;BME280;8275;48.206;16.340;2023-02-10T03:21:22;101122.88;;;3.16;37.33
16331;BME280;8275;48.206;16.340;2023-02-10T03:23:50;101121.91;;;3.17;37.42
16331;BME280;8275;48.206;16.340;2023-02-10T03:26:19;101121.91;;;3.17;37.10
16331;BME280;8275;48.206;16.340;2023-02-10T03:28:47;101117.34;;;3.17;37.43
16331;BME280;8275;48.206;16.340;2023-02-10T03:31:15;101123.75;;;3.16;37.00
16331;BME280;8275;48.206;16.340;2023-02-10T03:33:44;101118.34;;;3.16;37.10
16331;BME280;8275;48.206;16.340;2023-02-10T03:36:13;101131.00;;;3.16;37.27
16331;BME280;8275;48.206;16.340;2023-02-10T03:38:43;101122.22;;;3.14;36.90
16331;BME280;8275;48.206;16.340;2023-02-10T03:41:12;101123.25;;;3.13;37.56
16331;BME280;8275;48.206;16.340;2023-02-10T03:43:41;101120.53;;;3.13;37.12
16331;BME280;8275;48.206;16.340;2023-02-10T03:46:10;101120.66;;;3.11;37.43
16331;BME280;8275;48.206;16.340;2023-02-10T03:48:39;101128.97;;;3.10;37.51
16331;BME280;8275;48.206;16.340;2023-02-10T03:51:08;101129.16;;;3.08;37.57
16331;BME280;8275;48.206;16.340;2023-02-10T03:53:36;101138.44;;;3.06;37.45
16331;BME280;8275;48.206;16.340;2023-02-10T03:56:07;101134.19;;;3.03;37.62
16331;BME280;8275;48.206;16.340;2023-02-10T03:58:36;101140.78;;;3.01;37.30
16331;BME280;8275;48.206;16.340;2023-02-10T04:01:11;101135.53;;;2.99;37.79
16331;BME280;8275;48.206;16.340;2023-02-10T04:03:41;101133.16;;;2.96;37.31
16331;BME280;8275;48.206;16.340;2023-02-10T04:06:11;101138.72;;;2.95;37.31
16331;BME280;8275;48.206;16.340;2023-02-10T04:08:40;101133.47;;;2.93;37.55
16331;BME280;8275;48.206;16.340;2023-02-10T04:11:09;101133.63;;;2.92;37.45
16331;BME280;8275;48.206;16.340;2023-02-10T04:13:38;101133.81;;;2.90;37.34
16331;BME280;8275;48.206;16.340;2023-02-10T04:16:11;101134.13;;;2.87;37.72
16331;BME280;8275;48.206;16.340;2023-02-10T04:18:40;101132.41;;;2.86;37.39
16331;BME280;8275;48.206;16.340;2023-02-10T04:21:11;101129.03;;;2.84;37.44
16331;BME280;8275;48.206;16.340;2023-02-10T04:23:40;101137.31;;;2.82;37.87
16331;BME280;8275;48.206;16.340;2023-02-10T04:26:10;101138.47;;;2.80;38.09
16331;BME280;8275;48.206;16.340;2023-02-10T04:28:38;101130.53;;;2.78;38.03
16331;BME280;8275;48.206;16.340;2023-02-10T04:31:07;101136.94;;;2.77;37.82
16331;BME280;8275;48.206;16.340;2023-02-10T04:33:37;101131.69;;;2.76;37.61
16331;BME280;8275;48.206;16.340;2023-02-10T04:36:07;101142.53;;;2.76;37.46
16331;BME280;8275;48.206;16.340;2023-02-10T04:38:35;101146.22;;;2.75;37.90
16331;BME280;8275;48.206;16.340;2023-02-10T04:41:04;101146.41;;;2.73;37.41
16331;BME280;8275;48.206;16.340;2023-02-10T04:43:34;101138.41;;;2.72;38.10
16331;BME280;8275;48.206;16.340;2023-02-10T04:46:03;101151.94;;;2.72;38.19
16331;BME280;8275;48.206;16.340;2023-02-10T04:48:31;101144.84;;;2.71;37.90
16331;BME280;8275;48.206;16.340;2023-02-10T04:51:06;101139.94;;;2.66;38.36
16331;BME280;8275;48.206;16.340;2023-02-10T04:53:35;101147.00;;;2.67;38.25
16331;BME280;8275;48.206;16.340;2023-02-10T04:56:04;101144.66;;;2.64;37.86
16331;BME280;8275;48.206;16.340;2023-02-10T04:58:35;101152.78;;;2.64;38.34
16331;BME280;8275;48.206;16.340;2023-02-10T05:01:03;101152.91;;;2.63;38.48
16331;BME280;8275;48.206;16.340;2023-02-10T05:03:32;101157.31;;;2.64;38.14
16331;BME280;8275;48.206;16.340;2023-02-10T05:06:07;101154.63;;;2.64;37.91
16331;BME280;8275;48.206;16.340;2023-02-10T05:08:36;101155.47;;;2.64;38.48
16331;BME280;8275;48.206;16.340;2023-02-10T05:11:08;101160.72;;;2.66;38.45
16331;BME280;8275;48.206;16.340;2023-02-10T05:13:39;101159.84;;;2.65;38.39
16331;BME280;8275;48.206;16.340;2023-02-10T05:16:08;101163.41;;;2.66;38.63
16331;BME280;8275;48.206;16.340;2023-02-10T05:18:37;101164.09;;;2.68;38.32
16331;BME280;8275;48.206;16.340;2023-02-10T05:21:08;101155.59;;;2.63;38.49
16331;BME280;8275;48.206;16.340;2023-02-10T05:23:37;101172.22;;;2.68;38.23
16331;BME280;8275;48.206;16.340;2023-02-10T05:26:06;101178.50;;;2.68;38.54
16331;BME280;8275;48.206;16.340;2023-02-10T05:28:35;101175.78;;;2.68;38.46
16331;BME280;8275;48.206;16.340;2023-02-10T05:31:05;101168.53;;;2.69;38.53
16331;BME280;8275;48.206;16.340;2023-02-10T05:33:35;101178.19;;;2.71;38.98
16331;BME280;8275;48.206;16.340;2023-02-10T05:36:04;101172.59;;;2.73;38.52
16331;BME280;8275;48.206;16.340;2023-02-10T05:38:33;101180.53;;;2.74;38.74
16331;BME280;8275;48.206;16.340;2023-02-10T05:41:02;101178.53;;;2.76;38.79
16331;BME280;8275;48.206;16.340;2023-02-10T05:43:30;101181.09;;;2.78;39.12
16331;BME280;8275;48.206;16.340;2023-02-10T05:45:59;101181.94;;;2.78;39.08
16331;BME280;8275;48.206;16.340;2023-02-10T05:48:29;101182.63;;;2.80;38.85
16331;BME280;8275;48.206;16.340;2023-02-10T05:50:57;101190.56;;;2.82;38.75
16331;BME280;8275;48.206;16.340;2023-02-10T05:53:25;101187.72;;;2.83;38.78
16331;BME280;8275;48.206;16.340;2023-02-10T05:55:54;101183.16;;;2.84;38.68
16331;BME280;8275;48.206;16.340;2023-02-10T05:58:22;101190.41;;;2.83;38.90
16331;BME280;8275;48.206;16.340;2023-02-10T06:00:51;101197.72;;;2.83;38.89
16331;BME280;8275;48.206;16.340;2023-02-10T06:03:19;101203.13;;;2.83;38.91
16331;BME280;8275;48.206;16.340;2023-02-10T06:05:49;101201.22;;;2.83;38.84
16331;BME280;8275;48.206;16.340;2023-02-10T06:08:18;101205.47;;;2.86;39.21
16331;BME280;8275;48.206;16.340;2023-02-10T06:10:46;101208.88;;;2.88;39.00
16331;BME280;8275;48.206;16.340;2023-02-10T06:13:15;101216.00;;;2.89;38.84
16331;BME280;8275;48.206;16.340;2023-02-10T06:15:43;101225.66;;;2.92;38.98
16331;BME280;8275;48.206;16.340;2023-02-10T06:18:12;101220.94;;;2.94;39.41
16331;BME280;8275;48.206;16.340;2023-02-10T06:20:40;101226.34;;;2.94;39.34
16331;BME280;8275;48.206;16.340;2023-02-10T06:23:10;101230.59;;;2.96;38.93
16331;BME280;8275;48.206;16.340;2023-02-10T06:25:38;101234.00;;;2.98;38.87
16331;BME280;8275;48.206;16.340;2023-02-10T06:28:07;101239.91;;;3.02;39.49
16331;BME280;8275;48.206;16.340;2023-02-10T06:30:35;101243.16;;;3.05;39.54
16331;BME280;8275;48.206;16.340;2023-02-10T06:33:04;101246.41;;;3.09;39.05
16331;BME280;8275;48.206;16.340;2023-02-10T06:35:32;101240.50;;;3.13;39.38
16331;BME280;8275;48.206;16.340;2023-02-10T06:38:01;101236.63;;;3.16;39.31
16331;BME280;8275;48.206;16.340;2023-02-10T06:40:31;101234.59;;;3.18;39.17
16331;BME280;8275;48.206;16.340;2023-02-10T06:42:59;101239.56;;;3.22;39.40
16331;BME280;8275;48.206;16.340;2023-02-10T06:45:29;101237.38;;;3.26;39.37
16331;BME280;8275;48.206;16.340;2023-02-10T06:47:57;101252.13;;;3.31;39.22
16331;BME280;8275;48.206;16.340;2023-02-10T06:50:26;101245.19;;;3.37;39.34
16331;BME280;8275;48.206;16.340;2023-02-10T06:52:54;101237.44;;;3.42;39.22
16331;BME280;8275;48.206;16.340;2023-02-10T06:55:23;101250.31;;;3.48;39.32
16331;BME280;8275;48.206;16.340;2023-02-10T06:57:52;101249.53;;;3.55;39.14
16331;BME280;8275;48.206;16.340;2023-02-10T07:00:21;101249.56;;;3.64;39.10
16331;BME280;8275;48.206;16.340;2023-02-10T07:02:49;101256.72;;;3.73;39.12
16331;BME280;8275;48.206;16.340;2023-02-10T07:05:18;101255.72;;;3.82;39.11
16331;BME280;8275;48.206;16.340;2023-02-10T07:07:47;101264.41;;;3.93;38.89
16331;BME280;8275;48.206;16.340;2023-02-10T07:10:15;101268.66;;;4.04;39.13
16331;BME280;8275;48.206;16.340;2023-02-10T07:12:44;101263.09;;;4.13;38.44
16331;BME280;8275;48.206;16.340;2023-02-10T07:15:15;101263.63;;;4.25;38.95
16331;BME280;8275;48.206;16.340;2023-02-10T07:17:44;101263.28;;;4.36;38.51
16331;BME280;8275;48.206;16.340;2023-02-10T07:20:13;101265.00;;;4.45;38.75
16331;BME280;8275;48.206;16.340;2023-02-10T07:22:41;101263.66;;;4.57;38.15
16331;BME280;8275;48.206;16.340;2023-02-10T07:25:10;101265.34;;;4.66;38.13
16331;BME280;8275;48.206;16.340;2023-02-10T07:27:38;101265.00;;;4.77;37.91
16331;BME280;8275;48.206;16.340;2023-02-10T07:30:08;101262.31;;;4.85;38.62
16331;BME280;8275;48.206;16.340;2023-02-10T07:32:38;101257.38;;;4.97;38.50
16331;BME280;8275;48.206;16.340;2023-02-10T07:35:09;101257.16;;;5.07;38.55
16331;BME280;8275;48.206;16.340;2023-02-10T07:37:37;101258.69;;;5.17;38.37
16331;BME280;8275;48.206;16.340;2023-02-10T07:40:07;101256.13;;;5.24;37.48
16331;BME280;8275;48.206;16.340;2023-02-10T07:42:37;101264.75;;;5.35;37.90
16331;BME280;8275;48.206;16.340;2023-02-10T07:45:07;101266.41;;;5.44;37.58
16331;BME280;8275;48.206;16.340;2023-02-10T07:47:37;101266.22;;;5.54;37.22
16331;BME280;8275;48.206;16.340;2023-02-10T07:50:06;101258.72;;;5.64;37.91
16331;BME280;8275;48.206;16.340;2023-02-10T07:52:35;101261.38;;;5.72;37.29
16331;BME280;8275;48.206;16.340;2023-02-10T07:55:05;101261.16;;;5.82;37.17
16331;BME280;8275;48.206;16.340;2023-02-10T07:57:33;101269.31;;;5.90;36.71
16331;BME280;8275;48.206;16.340;2023-02-10T08:00:03;101268.44;;;5.97;36.98
16331;BME280;8275;48.206;16.340;2023-02-10T08:02:32;101273.00;;;6.05;36.69
16331;BME280;8275;48.206;16.340;2023-02-10T08:05:02;101286.38;;;6.14;35.72
16331;BME280;8275;48.206;16.340;2023-02-10T08:07:30;101285.66;;;6.20;36.01
16331;BME280;8275;48.206;16.340;2023-02-10T08:09:59;101285.78;;;6.27;36.49
16331;BME280;8275;48.206;16.340;2023-02-10T08:12:27;101292.19;;;6.34;36.67
16331;BME280;8275;48.206;16.340;2023-02-10T08:14:55;101285.66;;;6.43;35.60
16331;BME280;8275;48.206;16.340;2023-02-10T08:17:24;101284.78;;;6.51;36.31
16331;BME280;8275;48.206;16.340;2023-02-10T08:19:52;101297.09;;;6.61;36.14
16331;BME280;8275;48.206;16.340;2023-02-10T08:22:22;101296.41;;;6.67;35.89
16331;BME280;8275;48.206;16.340;2023-02-10T08:24:51;101295.66;;;6.73;35.48
16331;BME280;8275;48.206;16.340;2023-02-10T08:27:19;101295.59;;;6.81;36.10
16331;BME280;8275;48.206;16.340;2023-02-10T08:29:48;101292.34;;;6.86;35.61
16331;BME280;8275;48.206;16.340;2023-02-10T08:32:16;101303.50;;;6.91;35.33
16331;BME280;8275;48.206;16.340;2023-02-10T08:34:46;101302.78;;;6.97;35.88
16331;BME280;8275;48.206;16.340;2023-02-10T08:37:16;101298.09;;;7.05;35.41
16331;BME280;8275;48.206;16.340;2023-02-10T08:39:46;101294.63;;;7.12;35.61
16331;BME280;8275;48.206;16.340;2023-02-10T08:42:15;101291.66;;;7.21;35.20
16331;BME280;8275;48.206;16.340;2023-02-10T08:44:44;101295.97;;;7.30;35.54
16331;BME280;8275;48.206;16.340;2023-02-10T08:47:12;101298.63;;;7.38;35.05
16331;BME280;8275;48.206;16.340;2023-02-10T08:49:42;101302.13;;;7.47;35.32
16331;BME280;8275;48.206;16.340;2023-02-10T08:52:11;101291.31;;;7.53;34.86
16331;BME280;8275;48.206;16.340;2023-02-10T08:54:39;101290.56;;;7.59;34.86
16331;BME280;8275;48.206;16.340;2023-02-10T08:57:09;101298.00;;;7.65;34.96
16331;BME280;8275;48.206;16.340;2023-02-10T08:59:38;101295.72;;;7.69;34.71
16331;BME280;8275;48.206;16.340;2023-02-10T09:02:06;101305.03;;;7.74;34.43
16331;BME280;8275;48.206;16.340;2023-02-10T09:04:35;101285.19;;;7.80;34.32
16331;BME280;8275;48.206;16.340;2023-02-10T09:07:04;101296.78;;;7.83;34.51
16331;BME280;8275;48.206;16.340;2023-02-10T09:09:38;101291.56;;;7.88;34.55
16331;BME280;8275;48.206;16.340;2023-02-10T09:12:09;101295.06;;;7.96;34.48
16331;BME280;8275;48.206;16.340;2023-02-10T09:14:39;101306.50;;;8.06;34.61
16331;BME280;8275;48.206;16.340;2023-02-10T09:17:10;101289.19;;;8.14;34.25
16331;BME280;8275;48.206;16.340;2023-02-10T09:19:39;101283.53;;;8.15;34.07
16331;BME280;8275;48.206;16.340;2023-02-10T09:22:08;101299.31;;;8.20;33.93
16331;BME280;8275;48.206;16.340;2023-02-10T09:24:37;101308.84;;;8.24;34.02
16331;BME280;8275;48.206;16.340;2023-02-10T09:27:05;101303.50;;;8.30;34.11
16331;BME280;8275;48.206;16.340;2023-02-10T09:29:35;101295.38;;;8.37;34.19
16331;BME280;8275;48.206;16.340;2023-02-10T09:32:04;101306.84;;;8.47;34.15
16331;BME280;8275;48.206;16.340;2023-02-10T09:34:33;101301.72;;;8.59;34.01
16331;BME280;8275;48.206;16.340;2023-02-10T09:37:02;101300.94;;;8.65;33.93
16331;BME280;8275;48.206;16.340;2023-02-10T09:39:31;101304.56;;;8.72;34.05
16331;BME280;8275;48.206;16.340;2023-02-10T09:42:08;101304.44;;;8.80;34.06
16331;BME280;8275;48.206;16.340;2023-02-10T09:44:44;101317.13;;;8.87;33.80
16331;BME280;8275;48.206;16.340;2023-02-10T09:47:30;101314.00;;;8.90;33.38
16331;BME280;8275;48.206;16.340;2023-02-10T09:50:20;101306.84;;;8.89;33.20
16331;BME280;8275;48.206;16.340;2023-02-10T09:53:04;101302.22;;;8.90;33.24
16331;BME280;8275;48.206;16.340;2023-02-10T09:55:40;101301.63;;;8.94;33.50
16331;BME280;8275;48.206;16.340;2023-02-10T09:58:22;101301.91;;;8.99;33.78
16331;BME280;8275;48.206;16.340;2023-02-10T10:00:58;101294.41;;;9.08;33.23
16331;BME280;8275;48.206;16.340;2023-02-10T10:03:37;101293.81;;;9.12;33.09
16331;BME280;8275;48.206;16.340;2023-02-10T10:06:17;101295.94;;;9.17;33.06
16331;BME280;8275;48.206;16.340;2023-02-10T10:09:08;101288.00;;;9.22;32.83
16331;BME280;8275;48.206;16.340;2023-02-10T10:11:43;101281.06;;;9.26;32.97
16331;BME280;8275;48.206;16.340;2023-02-10T10:14:17;101279.63;;;9.30;33.15
16331;BME280;8275;48.206;16.340;2023-02-10T10:17:26;101294.63;;;9.34;33.02
16331;BME280;8275;48.206;16.340;2023-02-10T10:20:20;101280.09;;;9.34;32.88
16331;BME280;8275;48.206;16.340;2023-02-10T10:23:07;101277.16;;;9.35;32.51
16331;BME280;8275;48.206;16.340;2023-02-10T10:26:00;101262.41;;;9.30;32.58
16331;BME280;8275;48.206;16.340;2023-02-10T10:28:42;101257.75;;;9.30;32.74
16331;BME280;8275;48.206;16.340;2023-02-10T10:31:17;101252.94;;;9.32;32.71
16331;BME280;8275;48.206;16.340;2023-02-10T10:33:51;101246.47;;;9.40;32.81
16331;BME280;8275;48.206;16.340;2023-02-10T10:36:23;101237.94;;;9.56;32.40
16331;BME280;8275;48.206;16.340;2023-02-10T10:39:01;101249.78;;;9.69;32.26
16331;BME280;8275;48.206;16.340;2023-02-10T10:41:37;101235.06;;;9.70;32.39
16331;BME280;8275;48.206;16.340;2023-02-10T10:44:05;101238.03;;;9.75;32.50
16331;BME280;8275;48.206;16.340;2023-02-10T10:46:40;101248.16;;;9.81;32.72
16331;BME280;8275;48.206;16.340;2023-02-10T10:49:12;101236.22;;;9.89;32.69
16331;BME280;8275;48.206;16.340;2023-02-10T10:51:41;101227.59;;;9.92;32.37
16331;BME280;8275;48.206;16.340;2023-02-10T10:54:15;101232.25;;;9.98;32.36
16331;BME280;8275;48.206;16.340;2023-02-10T10:56:49;101227.91;;;10.17;31.67
16331;BME280;8275;48.206;16.340;2023-02-10T10:59:25;101227.16;;;10.49;32.01
16331;BME280;8275;48.206;16.340;2023-02-10T11:01:55;101231.19;;;10.86;30.29
16331;BME280;8275;48.206;16.340;2023-02-10T11:04:26;101221.69;;;11.08;29.21
16331;BME280;8275;48.206;16.340;2023-02-10T11:06:56;101218.06;;;11.34;29.62
16331;BME280;8275;48.206;16.340;2023-02-10T11:09:29;101209.34;;;11.56;28.10
16331;BME280;8275;48.206;16.340;2023-02-10T11:12:04;101196.88;;;11.73;27.59
16331;BME280;8275;48.206;16.340;2023-02-10T11:14:39;101194.88;;;11.93;27.87
16331;BME280;8275;48.206;16.340;2023-02-10T11:17:22;101177.16;;;12.27;28.29
16331;BME280;8275;48.206;16.340;2023-02-10T11:19:59;101181.31;;;12.67;28.28
16331;BME280;8275;48.206;16.340;2023-02-10T11:22:28;101175.72;;;12.99;26.17
16331;BME280;8275;48.206;16.340;2023-02-10T11:24:59;101174.97;;;13.16;25.96
16331;BME280;8275;48.206;16.340;2023-02-10T11:27:28;101181.81;;;13.32;25.69
16331;BME280;8275;48.206;16.340;2023-02-10T11:29:58;101170.78;;;13.50;25.49
16331;BME280;8275;48.206;16.340;2023-02-10T11:32:33;101165.72;;;13.65;25.01
16331;BME280;8275;48.206;16.340;2023-02-10T11:35:06;101167.41;;;13.84;24.96
16331;BME280;8275;48.206;16.340;2023-02-10T11:37:42;101162.25;;;14.06;24.37
16331;BME280;8275;48.206;16.340;2023-02-10T11:40:20;101159.44;;;14.24;23.94
16331;BME280;8275;48.206;16.340;2023-02-10T11:42:51;101152.44;;;14.40;23.13
16331;BME280;8275;48.206;16.340;2023-02-10T11:45:23;101145.75;;;14.47;23.33
16331;BME280;8275;48.206;16.340;2023-02-10T11:48:03;101152.38;;;14.69;22.91
16331;BME280;8275;48.206;16.340;2023-02-10T11:50:35;101157.19;;;14.74;22.00
16331;BME280;8275;48.206;16.340;2023-02-10T11:53:04;101163.69;;;14.80;21.83
16331;BME280;8275;48.206;16.340;2023-02-10T11:55:44;101167.16;;;14.87;22.64
16331;BME280;8275;48.206;16.340;2023-02-10T11:58:51;101164.41;;;14.98;21.89
16331;BME280;8275;48.206;16.340;2023-02-10T12:01:52;101171.38;;;15.24;22.41
16331;BME280;8275;48.206;16.340;2023-02-10T12:05:04;101167.19;;;15.44;22.41
16331;BME280;8275;48.206;16.340;2023-02-10T12:07:50;101158.22;;;15.77;22.60
16331;BME280;8275;48.206;16.340;2023-02-10T12:10:28;101156.88;;;16.20;21.44
16331;BME280;8275;48.206;16.340;2023-02-10T12:13:04;101149.31;;;16.43;20.62
16331;BME280;8275;48.206;16.340;2023-02-10T12:15:49;101155.00;;;16.37;20.34
16331;BME280;8275;48.206;16.340;2023-02-10T12:18:38;101152.34;;;16.58;21.36
16331;BME280;8275;48.206;16.340;2023-02-10T12:21:21;101139.78;;;17.01;21.56
16331;BME280;8275;48.206;16.340;2023-02-10T12:24:18;101146.16;;;17.56;20.96
16331;BME280;8275;48.206;16.340;2023-02-10T12:26:54;101145.16;;;18.10;21.48
16331;BME280;8275;48.206;16.340;2023-02-10T12:29:37;101134.59;;;18.61;21.62
16331;BME280;8275;48.206;16.340;2023-02-10T12:32:18;101134.38;;;18.99;21.38
16331;BME280;8275;48.206;16.340;2023-02-10T12:35:16;101135.75;;;18.97;18.41
16331;BME280;8275;48.206;16.340;2023-02-10T12:37:59;101146.72;;;18.81;19.28
16331;BME280;8275;48.206;16.340;2023-02-10T12:40:50;101144.97;;;18.70;19.39
16331;BME280;8275;48.206;16.340;2023-02-10T12:43:47;101139.25;;;18.50;19.13
16331;BME280;8275;48.206;16.340;2023-02-10T12:46:25;101136.69;;;18.22;17.88
16331;BME280;8275;48.206;16.340;2023-02-10T12:49:11;101145.31;;;17.99;18.89
16331;BME280;8275;48.206;16.340;2023-02-10T12:52:04;101142.19;;;18.17;19.17
16331;BME280;8275;48.206;16.340;2023-02-10T12:54:45;101140.94;;;18.30;18.88
16331;BME280;8275;48.206;16.340;2023-02-10T12:57:21;101142.31;;;18.54;19.02
16331;BME280;8275;48.206;16.340;2023-02-10T12:59:58;101136.78;;;18.85;18.20
16331;BME280;8275;48.206;16.340;2023-02-10T13:02:36;101132.94;;;18.91;17.88
16331;BME280;8275;48.206;16.340;2023-02-10T13:05:11;101129.03;;;18.92;17.79
16331;BME280;8275;48.206;16.340;2023-02-10T13:07:48;101130.00;;;19.08;18.30
16331;BME280;8275;48.206;16.340;2023-02-10T13:10:26;101130.47;;;19.37;18.93
16331;BME280;8275;48.206;16.340;2023-02-10T13:13:03;101125.66;;;19.74;18.89
16331;BME280;8275;48.206;16.340;2023-02-10T13:15:37;101126.00;;;19.88;17.93
16331;BME280;8275;48.206;16.340;2023-02-10T13:18:18;101122.59;;;19.76;17.68
16331;BME280;8275;48.206;16.340;2023-02-10T13:20:58;101121.69;;;19.55;16.51
16331;BME280;8275;48.206;16.340;2023-02-10T13:23:34;101120.94;;;19.28;16.74
16331;BME280;8275;48.206;16.340;2023-02-10T13:26:32;101121.78;;;19.28;17.04
16331;BME280;8275;48.206;16.340;2023-02-10T13:29:14;101115.63;;;19.21;16.53
16331;BME280;8275;48.206;16.340;2023-02-10T13:32:09;101127.28;;;18.50;16.66